createdAt,value
2018-05-18T00:01:06.882Z,55.20
2018-05-18T00:03:35.833Z,54.10
2018-05-18T00:06:05.113Z,54.00
2018-05-18T00:08:34.004Z,54.00
2018-05-18T00:11:03.112Z,54.10
2018-05-18T00:13:32.007Z,54.00
2018-05-18T00:16:01.212Z,54.10
2018-05-18T00:18:30.872Z,54.60
2018-05-18T00:20:59.903Z,54.10
2018-05-18T00:23:29.021Z,54.10
2018-05-18T00:25:57.916Z,54.10
2018-05-18T00:28:26.815Z,54.10
2018-05-18T00:30:55.703Z,54.60
2018-05-18T00:33:24.592Z,54.10
2018-05-18T00:35:54.478Z,54.10
2018-05-18T00:38:24.392Z,54.70
2018-05-18T00:40:54.043Z,54.70
2018-05-18T00:43:22.939Z,54.10
2018-05-18T00:45:51.826Z,54.10
2018-05-18T00:48:20.715Z,54.10
2018-05-18T00:50:49.992Z,54.10
2018-05-18T00:53:18.885Z,54.10
2018-05-18T00:55:47.971Z,54.20
2018-05-18T00:58:17.146Z,54.20
2018-05-18T01:00:46.847Z,54.70
2018-05-18T01:03:16.514Z,54.10
2018-05-18T01:05:45.399Z,54.10
2018-05-18T01:08:14.304Z,54.20
2018-05-18T01:10:43.188Z,54.20
2018-05-18T01:13:12.479Z,54.10
2018-05-18T01:15:41.368Z,54.10
2018-05-18T01:18:10.693Z,54.20
2018-05-18T01:20:39.663Z,54.20
2018-05-18T01:23:08.555Z,54.20
2018-05-18T01:25:37.445Z,54.70
2018-05-18T01:28:06.364Z,54.20
2018-05-18T01:30:35.374Z,54.20
2018-05-18T01:33:05.043Z,54.70
2018-05-18T01:35:34.048Z,54.20
2018-05-18T01:38:03.323Z,54.20
2018-05-18T01:40:32.229Z,54.20
2018-05-18T01:43:02.893Z,54.70
2018-05-18T01:45:32.557Z,54.70
2018-05-18T01:48:01.443Z,54.20
2018-05-18T01:50:30.563Z,54.20
2018-05-18T01:52:59.446Z,54.20
2018-05-18T01:55:28.334Z,54.20
2018-05-18T01:57:57.223Z,54.70
2018-05-18T02:00:26.216Z,54.20
2018-05-18T02:03:00.656Z,54.20
2018-05-18T02:05:30.335Z,54.70
2018-05-18T02:07:59.552Z,54.20
2018-05-18T02:10:29.215Z,54.80
2018-05-18T02:12:58.241Z,54.20
2018-05-18T02:15:27.319Z,54.20
2018-05-18T02:17:56.211Z,54.70
2018-05-18T02:20:25.097Z,54.20
2018-05-18T02:22:53.982Z,54.20
2018-05-18T02:25:22.873Z,54.20
2018-05-18T02:27:51.760Z,54.20
2018-05-18T02:30:20.651Z,54.20
2018-05-18T02:32:49.545Z,54.70
2018-05-18T02:35:18.433Z,54.20
2018-05-18T02:37:48.089Z,54.20
2018-05-18T02:40:17.187Z,54.20
2018-05-18T02:42:46.448Z,54.20
2018-05-18T02:45:15.952Z,54.80
2018-05-18T02:47:45.464Z,54.20
2018-05-18T02:50:15.133Z,55.10
2018-05-18T02:52:44.074Z,54.20
2018-05-18T02:55:13.721Z,54.80
2018-05-18T02:57:42.608Z,54.20
2018-05-18T03:00:11.502Z,54.20
2018-05-18T03:02:40.399Z,54.30
2018-05-18T03:05:09.532Z,54.20
2018-05-18T03:07:39.451Z,54.80
2018-05-18T03:10:09.363Z,54.80
2018-05-18T03:12:39.022Z,55.40
2018-05-18T03:15:07.909Z,54.20
2018-05-18T03:17:37.059Z,54.20
2018-05-18T03:20:06.720Z,54.80
2018-05-18T03:22:36.076Z,54.70
2018-05-18T03:25:05.371Z,54.30
2018-05-18T03:27:35.011Z,54.80
2018-05-18T03:30:04.679Z,54.20
2018-05-18T03:32:34.495Z,54.80
2018-05-18T03:35:04.151Z,54.80
2018-05-18T03:37:33.075Z,54.20
2018-05-18T03:40:02.729Z,55.00
2018-05-18T03:42:31.780Z,54.80
2018-05-18T03:45:01.442Z,54.80
2018-05-18T03:47:30.348Z,54.30
2018-05-18T03:49:59.614Z,54.20
2018-05-18T03:52:28.559Z,54.30
2018-05-18T03:54:57.462Z,54.20
2018-05-18T03:57:26.345Z,54.20
2018-05-18T03:59:56.189Z,54.80
2018-05-18T04:02:36.877Z,54.30
2018-05-18T04:05:17.673Z,54.30
2018-05-18T04:07:58.476Z,54.30
2018-05-18T04:10:27.453Z,54.30
2018-05-18T04:12:57.355Z,54.80
2018-05-18T04:17:57.008Z,54.30
2018-05-18T04:20:25.907Z,54.30
2018-05-18T04:22:54.793Z,54.20
2018-05-18T04:25:23.682Z,54.30
2018-05-18T04:27:52.572Z,54.30
2018-05-18T04:30:21.509Z,54.30
2018-05-18T04:32:50.837Z,54.30
2018-05-18T04:35:20.512Z,54.80
2018-05-18T04:37:49.413Z,54.20
2018-05-18T04:40:18.420Z,54.80
2018-05-18T04:42:48.119Z,54.80
2018-05-18T04:45:17.017Z,54.20
2018-05-18T04:47:45.917Z,54.20
2018-05-18T04:50:15.579Z,54.80
2018-05-18T04:52:44.485Z,54.70
2018-05-18T04:55:13.363Z,54.20
2018-05-18T04:57:42.476Z,54.20
2018-05-18T05:00:11.372Z,54.20
2018-05-18T05:02:40.781Z,54.70
2018-05-18T05:05:10.433Z,55.30
2018-05-18T05:07:40.321Z,54.20
2018-05-18T05:10:09.972Z,54.70
2018-05-18T05:12:38.894Z,54.20
2018-05-18T05:15:08.301Z,54.10
2018-05-18T05:17:37.959Z,54.70
2018-05-18T05:20:06.842Z,54.70
2018-05-18T05:22:35.753Z,54.10
2018-05-18T05:25:04.773Z,54.20
2018-05-18T05:27:33.679Z,54.20
2018-05-18T05:30:02.573Z,54.20
2018-05-18T05:32:32.346Z,54.70
2018-05-18T05:35:01.265Z,54.20
2018-05-18T05:37:30.926Z,54.70
2018-05-18T05:39:59.820Z,54.10
2018-05-18T05:42:29.059Z,54.20
2018-05-18T05:44:57.944Z,54.10
2018-05-18T05:47:27.605Z,54.70
2018-05-18T05:49:56.503Z,54.10
2018-05-18T05:52:26.144Z,54.10
2018-05-18T05:54:55.857Z,54.60
2018-05-18T05:57:25.526Z,54.60
2018-05-18T05:59:54.404Z,54.60
2018-05-18T06:02:23.356Z,54.10
2018-05-18T06:04:53.004Z,54.60
2018-05-18T06:07:21.927Z,54.00
2018-05-18T06:09:50.824Z,54.60
2018-05-18T06:12:20.473Z,54.00
2018-05-18T06:14:49.445Z,54.00
2018-05-18T06:17:18.328Z,54.00
2018-05-18T06:19:47.613Z,54.00
2018-05-18T06:22:17.529Z,54.50
2018-05-18T06:24:47.435Z,54.50
2018-05-18T06:27:17.124Z,54.60
2018-05-18T06:29:46.464Z,54.00
2018-05-18T06:32:16.119Z,54.50
2018-05-18T06:34:45.033Z,53.90
2018-05-18T06:37:14.020Z,54.50
2018-05-18T06:39:43.031Z,53.90
2018-05-18T06:42:12.684Z,54.50
2018-05-18T06:44:41.580Z,53.90
2018-05-18T06:47:10.456Z,54.00
2018-05-18T06:49:39.467Z,53.90
2018-05-18T06:52:08.364Z,53.80
2018-05-18T06:54:38.207Z,53.80
2018-05-18T06:57:07.196Z,53.80
2018-05-18T06:59:36.120Z,53.80
2018-05-18T07:02:05.005Z,53.80
2018-05-18T07:04:34.172Z,54.40
2018-05-18T07:07:03.833Z,54.60
2018-05-18T07:09:32.734Z,53.80
2018-05-18T07:12:01.622Z,53.70
2018-05-18T07:14:30.959Z,53.80
2018-05-18T07:17:00.625Z,54.40
2018-05-18T07:19:29.517Z,53.80
2018-05-18T07:21:58.412Z,53.70
2018-05-18T07:24:27.313Z,53.70
2018-05-18T07:26:56.611Z,53.70
2018-05-18T07:29:25.636Z,53.70
2018-05-18T07:31:55.296Z,54.30
2018-05-18T07:34:24.224Z,53.70
2018-05-18T07:36:53.992Z,54.20
2018-05-18T07:39:22.885Z,53.70
2018-05-18T07:41:51.813Z,53.70
2018-05-18T07:44:21.480Z,54.30
2018-05-18T07:46:50.369Z,53.70
2018-05-18T07:49:19.923Z,53.60
2018-05-18T07:51:49.829Z,54.20
2018-05-18T07:54:19.502Z,54.20
2018-05-18T07:56:48.388Z,53.60
2018-05-18T07:59:17.280Z,53.60
2018-05-18T08:01:46.617Z,53.60
2018-05-18T08:04:16.283Z,54.20
2018-05-18T08:06:45.177Z,53.60
2018-05-18T08:09:14.313Z,53.60
2018-05-18T08:11:43.376Z,53.60
2018-05-18T08:14:12.279Z,53.60
2018-05-18T08:16:41.591Z,53.60
2018-05-18T08:19:11.244Z,54.10
2018-05-18T08:21:40.238Z,53.50
2018-05-18T08:24:09.304Z,53.50
2018-05-18T08:26:38.196Z,53.50
2018-05-18T08:29:18.844Z,53.50
2018-05-18T08:31:48.521Z,54.00
2018-05-18T08:34:17.414Z,53.40
2018-05-18T08:36:47.073Z,53.50
2018-05-18T08:39:16.338Z,53.40
2018-05-18T08:41:45.257Z,53.40
2018-05-18T08:44:14.190Z,53.40
2018-05-18T08:46:43.147Z,53.90
2018-05-18T08:49:12.039Z,53.40
2018-05-18T08:51:40.917Z,53.40
2018-05-18T08:54:09.976Z,53.30
2018-05-18T08:56:38.855Z,53.40
2018-05-18T08:59:08.060Z,53.40
2018-05-18T09:01:37.733Z,53.80
2018-05-18T09:04:06.628Z,53.40
2018-05-18T09:06:35.512Z,53.40
2018-05-18T09:09:06.005Z,53.40
2018-05-18T09:11:35.652Z,53.30
2018-05-18T09:14:04.741Z,53.30
2018-05-18T09:16:33.633Z,53.40
2018-05-18T09:19:02.628Z,53.30
2018-05-18T09:21:31.512Z,53.30
2018-05-18T09:24:00.407Z,53.30
2018-05-18T09:26:29.322Z,53.30
2018-05-18T09:28:58.415Z,53.30
2018-05-18T09:31:27.534Z,53.30
2018-05-18T09:33:57.473Z,53.80
2018-05-18T09:36:26.539Z,53.80
2018-05-18T09:38:56.440Z,53.80
2018-05-18T09:41:26.091Z,53.80
2018-05-18T09:43:55.076Z,53.20
2018-05-18T09:46:24.212Z,53.20
2018-05-18T09:48:54.619Z,53.70
2018-05-18T09:51:23.516Z,53.20
2018-05-18T09:53:53.055Z,53.20
2018-05-18T09:56:22.717Z,53.80
2018-05-18T09:58:52.880Z,53.20
2018-05-18T10:01:22.557Z,53.80
2018-05-18T10:03:51.727Z,53.20
2018-05-18T10:06:20.983Z,53.20
2018-05-18T10:08:50.478Z,53.20
2018-05-18T10:11:19.372Z,53.20
2018-05-18T10:13:48.557Z,53.20
2018-05-18T10:16:17.451Z,53.20
2018-05-18T10:18:46.339Z,53.20
2018-05-18T10:21:15.228Z,53.70
2018-05-18T10:23:44.108Z,53.20
2018-05-18T10:26:13.000Z,53.20
2018-05-18T10:28:41.909Z,53.20
2018-05-18T10:31:11.096Z,53.20
2018-05-18T10:33:41.011Z,53.70
2018-05-18T10:36:09.908Z,53.10
2018-05-18T10:38:39.609Z,53.70
2018-05-18T10:41:08.800Z,53.10
2018-05-18T10:43:37.687Z,53.10
2018-05-18T10:46:06.976Z,53.10
2018-05-18T10:48:35.998Z,53.10
2018-05-18T10:51:05.650Z,53.70
2018-05-18T10:53:34.539Z,53.10
2018-05-18T10:56:03.446Z,53.10
2018-05-18T10:58:32.381Z,53.10
2018-05-18T11:01:02.022Z,53.80
2018-05-18T11:03:30.970Z,53.70
2018-05-18T11:06:00.909Z,53.80
2018-05-18T11:08:30.368Z,53.20
2018-05-18T11:10:59.467Z,53.20
2018-05-18T11:13:28.372Z,53.70
2018-05-18T11:15:57.671Z,53.20
2018-05-18T11:18:27.581Z,53.80
2018-05-18T11:20:57.251Z,53.80
2018-05-18T11:23:26.155Z,53.70
2018-05-18T11:25:55.672Z,53.20
2018-05-18T11:28:25.542Z,53.80
2018-05-18T11:30:54.816Z,53.20
2018-05-18T11:33:23.880Z,53.20
2018-05-18T11:35:53.781Z,53.80
2018-05-18T11:38:24.179Z,53.70
2018-05-18T11:40:53.067Z,53.20
2018-05-18T11:43:22.364Z,53.10
2018-05-18T11:45:51.255Z,53.20
2018-05-18T11:48:20.124Z,53.20
2018-05-18T11:50:49.789Z,53.20
2018-05-18T11:53:19.080Z,53.20
2018-05-18T11:55:47.971Z,53.70
2018-05-18T11:58:16.865Z,53.20
2018-05-18T12:00:46.526Z,53.80
2018-05-18T12:03:15.763Z,53.20
2018-05-18T12:05:45.372Z,53.10
2018-05-18T12:08:14.345Z,53.00
2018-05-18T12:10:43.473Z,53.10
2018-05-18T12:13:13.147Z,53.70
2018-05-18T12:15:42.454Z,53.20
2018-05-18T12:18:11.353Z,53.10
2018-05-18T12:20:40.233Z,53.10
2018-05-18T12:23:09.141Z,53.10
2018-05-18T12:25:38.788Z,53.70
2018-05-18T12:28:07.707Z,53.20
2018-05-18T12:30:36.584Z,53.20
2018-05-18T12:33:06.269Z,53.10
2018-05-18T12:35:35.226Z,53.10
2018-05-18T12:38:04.994Z,53.70
2018-05-18T12:40:34.201Z,53.20
2018-05-18T12:43:03.408Z,53.20
2018-05-18T12:45:32.458Z,53.20
2018-05-18T12:48:02.420Z,53.70
2018-05-18T12:50:31.332Z,53.20
2018-05-18T12:53:00.215Z,53.20
2018-05-18T12:55:29.867Z,53.70
2018-05-18T12:57:58.754Z,53.70
2018-05-18T13:00:27.653Z,53.20
2018-05-18T13:02:56.535Z,53.20
2018-05-18T13:05:25.616Z,53.20
2018-05-18T13:07:54.500Z,53.20
2018-05-18T13:10:23.772Z,53.20
2018-05-18T13:12:52.661Z,53.20
2018-05-18T13:15:22.324Z,53.70
2018-05-18T13:17:51.989Z,53.20
2018-05-18T13:20:21.865Z,53.70
2018-05-18T13:22:50.874Z,53.20
2018-05-18T13:25:19.974Z,53.20
2018-05-18T13:27:49.889Z,53.70
2018-05-18T13:30:19.800Z,53.80
2018-05-18T13:32:49.440Z,53.80
2018-05-18T13:35:18.342Z,53.70
2018-05-18T13:37:47.238Z,53.10
2018-05-18T13:40:16.123Z,53.10
2018-05-18T13:42:45.004Z,53.10
2018-05-18T13:45:14.795Z,53.10
2018-05-18T13:47:44.456Z,53.60
2018-05-18T13:50:13.374Z,53.10
2018-05-18T13:52:43.041Z,53.70
2018-05-18T13:55:11.931Z,53.10
2018-05-18T13:57:41.591Z,53.10
2018-05-18T14:00:11.266Z,53.60
2018-05-18T14:02:40.147Z,53.60
2018-05-18T14:05:09.045Z,53.10
2018-05-18T14:07:37.929Z,53.10
2018-05-18T14:10:06.826Z,53.00
2018-05-18T14:12:35.711Z,53.00
2018-05-18T14:15:04.720Z,53.00
2018-05-18T14:17:34.016Z,53.00
2018-05-18T14:20:03.287Z,52.90
2018-05-18T14:22:32.194Z,53.00
2018-05-18T14:25:01.104Z,53.00
2018-05-18T14:27:30.127Z,53.10
2018-05-18T14:29:59.017Z,53.20
2018-05-18T14:32:27.904Z,53.20
2018-05-18T14:34:57.210Z,53.00
2018-05-18T14:37:26.099Z,53.10
2018-05-18T14:39:55.013Z,53.10
2018-05-18T14:42:23.908Z,53.10
2018-05-18T14:44:52.813Z,53.10
2018-05-18T14:47:21.693Z,53.10
2018-05-18T14:49:50.598Z,53.20
2018-05-18T14:52:19.561Z,53.00
2018-05-18T14:54:48.447Z,53.10
2018-05-18T14:57:17.352Z,53.10
2018-05-18T14:59:46.239Z,52.90
2018-05-18T15:02:15.140Z,52.80
2018-05-18T15:04:44.790Z,53.00
2018-05-18T15:07:13.977Z,52.90
2018-05-18T15:09:42.863Z,52.90
2018-05-18T15:12:12.596Z,53.60
2018-05-18T15:14:42.248Z,52.80
2018-05-18T15:17:11.378Z,52.90
2018-05-18T15:19:40.930Z,53.60
2018-05-18T15:22:10.212Z,53.00
2018-05-18T15:24:39.108Z,52.90
2018-05-18T15:27:07.992Z,53.10
2018-05-18T15:29:37.142Z,53.00
2018-05-18T15:32:06.849Z,53.60
2018-05-18T15:34:35.815Z,52.90
2018-05-18T15:37:04.709Z,52.70
2018-05-18T15:39:33.823Z,52.60
2018-05-18T15:42:02.914Z,52.60
2018-05-18T15:44:32.186Z,52.50
2018-05-18T15:47:01.205Z,53.50
2018-05-18T15:49:30.843Z,53.00
2018-05-18T15:52:00.503Z,52.40
2018-05-18T15:54:29.387Z,52.50
2018-05-18T15:56:58.293Z,52.40
2018-05-18T15:59:27.180Z,52.40
2018-05-18T16:01:56.291Z,52.40
2018-05-18T16:04:25.348Z,52.30
2018-05-18T16:06:54.385Z,52.30
2018-05-18T16:09:24.288Z,52.90
2018-05-18T16:11:53.929Z,52.90
2018-05-18T16:14:22.830Z,52.30
2018-05-18T16:16:51.704Z,52.30
2018-05-18T16:19:20.601Z,52.30
2018-05-18T16:21:49.478Z,52.40
2018-05-18T16:24:18.367Z,52.90
2018-05-18T16:26:47.253Z,52.40
2018-05-18T16:29:16.721Z,52.30
2018-05-18T16:31:45.622Z,52.40
2018-05-18T16:34:15.282Z,52.90
2018-05-18T16:36:44.338Z,52.30
2018-05-18T16:39:13.998Z,52.50
2018-05-18T16:41:42.888Z,52.40
2018-05-18T16:44:12.084Z,52.50
2018-05-18T16:46:42.723Z,53.00
2018-05-18T16:49:11.627Z,52.50
2018-05-18T16:51:40.517Z,53.00
2018-05-18T16:54:10.165Z,53.70
2018-05-18T16:56:39.455Z,52.60
2018-05-18T16:59:08.347Z,52.50
2018-05-18T17:01:37.236Z,53.00
2018-05-18T17:04:06.124Z,52.60
2018-05-18T17:06:35.103Z,53.10
2018-05-18T17:09:05.438Z,52.80
2018-05-18T17:11:34.592Z,52.70
2018-05-18T17:14:03.487Z,52.70
2018-05-18T17:16:33.156Z,53.20
2018-05-18T17:19:02.284Z,52.80
2018-05-18T17:21:31.169Z,53.30
2018-05-18T17:24:00.060Z,52.70
2018-05-18T17:26:29.477Z,52.70
2018-05-18T17:28:59.382Z,53.90
2018-05-18T17:31:28.279Z,53.20
2018-05-18T17:33:57.584Z,53.10
2018-05-18T17:36:27.496Z,52.60
2018-05-18T17:38:57.410Z,52.40
2018-05-18T17:41:27.048Z,52.10
2018-05-18T17:43:56.349Z,51.80
2018-05-18T17:46:25.336Z,52.00
2018-05-18T17:48:54.392Z,52.20
2018-05-18T17:51:23.294Z,52.50
2018-05-18T17:53:52.952Z,53.00
2018-05-18T17:56:21.908Z,52.50
2018-05-18T17:58:50.802Z,53.00
2018-05-18T18:01:19.775Z,52.60
2018-05-18T18:03:49.420Z,53.20
2018-05-18T18:06:18.314Z,52.80
2018-05-18T18:08:47.597Z,53.30
2018-05-18T18:11:16.539Z,52.70
2018-05-18T18:13:45.429Z,52.60
2018-05-18T18:16:14.328Z,52.60
2018-05-18T18:18:43.987Z,53.20
2018-05-18T18:21:13.230Z,52.70
2018-05-18T18:23:42.890Z,52.80
2018-05-18T18:26:12.451Z,52.70
2018-05-18T18:28:41.448Z,52.80
2018-05-18T18:31:10.438Z,52.80
2018-05-18T18:33:40.096Z,53.40
2018-05-18T18:36:08.985Z,52.80
2018-05-18T18:38:38.121Z,52.80
2018-05-18T18:41:08.025Z,53.40
2018-05-18T18:43:36.937Z,52.80
2018-05-18T18:46:05.827Z,52.90
2018-05-18T18:48:35.584Z,53.40
2018-05-18T18:51:04.821Z,52.90
2018-05-18T18:53:34.473Z,53.40
2018-05-18T18:56:03.370Z,53.40
2018-05-18T18:58:32.257Z,53.00
2018-05-18T19:01:01.413Z,53.00
2018-05-18T19:03:30.295Z,53.00
2018-05-18T19:06:00.200Z,53.60
2018-05-18T19:08:29.941Z,53.60
2018-05-18T19:10:59.210Z,53.00
2018-05-18T19:13:28.880Z,53.60
2018-05-18T19:15:57.769Z,53.60
2018-05-18T19:18:26.666Z,53.00
2018-05-18T19:20:55.838Z,53.10
2018-05-18T19:23:24.726Z,53.20
2018-05-18T19:25:53.613Z,53.10
2018-05-18T19:28:22.522Z,53.20
2018-05-18T19:30:51.414Z,53.20
2018-05-18T19:33:20.338Z,53.20
2018-05-18T19:35:49.232Z,53.20
2018-05-18T19:38:18.117Z,53.20
2018-05-18T19:40:47.781Z,53.80
2018-05-18T19:43:16.674Z,53.80
2018-05-18T19:45:45.740Z,53.40
2018-05-18T19:48:15.207Z,53.30
2018-05-18T19:50:44.086Z,53.40
2018-05-18T19:53:13.088Z,53.90
2018-05-18T19:55:42.180Z,53.40
2018-05-18T19:58:11.283Z,53.40
2018-05-18T20:00:41.177Z,54.00
2018-05-18T20:03:10.068Z,53.40
2018-05-18T20:05:39.290Z,53.40
2018-05-18T20:08:08.510Z,53.40
2018-05-18T20:10:37.419Z,53.50
2018-05-18T20:13:06.304Z,53.50
2018-05-18T20:15:35.199Z,54.00
2018-05-18T20:18:04.859Z,53.50
2018-05-18T20:20:34.546Z,54.10
2018-05-18T20:23:03.740Z,53.60
2018-05-18T20:25:33.048Z,53.50
2018-05-18T20:28:02.332Z,53.50
2018-05-18T20:30:31.442Z,53.50
2018-05-18T20:33:00.557Z,53.50
2018-05-18T20:35:30.462Z,54.10
2018-05-18T20:38:00.132Z,54.20
2018-05-18T20:40:29.151Z,53.60
2018-05-18T20:42:58.804Z,54.20
2018-05-18T20:45:27.689Z,53.60
2018-05-18T20:47:56.837Z,53.60
2018-05-18T20:50:25.728Z,54.10
2018-05-18T20:52:54.611Z,53.60
2018-05-18T20:55:23.512Z,53.60
2018-05-18T20:57:52.509Z,53.60
2018-05-18T21:00:21.414Z,53.60
2018-05-18T21:02:51.086Z,54.20
2018-05-18T21:05:19.976Z,53.60
2018-05-18T21:07:49.069Z,53.70
2018-05-18T21:10:17.956Z,53.70
2018-05-18T21:12:46.885Z,53.70
2018-05-18T21:15:16.526Z,54.20
2018-05-18T21:17:45.481Z,53.70
2018-05-18T21:20:15.141Z,54.30
2018-05-18T21:22:44.165Z,53.70
2018-05-18T21:25:13.442Z,53.70
2018-05-18T21:27:42.377Z,53.70
2018-05-18T21:30:11.451Z,53.70
2018-05-18T21:32:40.443Z,53.70
2018-05-18T21:35:10.361Z,54.30
2018-05-18T21:37:40.281Z,54.30
2018-05-18T21:40:10.185Z,54.30
2018-05-18T21:42:39.846Z,54.50
2018-05-18T21:45:08.736Z,53.80
2018-05-18T21:47:37.625Z,53.80
2018-05-18T21:50:06.590Z,53.80
2018-05-18T21:52:35.492Z,53.80
2018-05-18T21:55:04.388Z,53.70
2018-05-18T21:57:33.851Z,53.80
2018-05-18T22:00:03.508Z,54.30
2018-05-18T22:02:32.857Z,53.80
2018-05-18T22:05:02.757Z,54.30
2018-05-18T22:07:31.661Z,54.30
2018-05-18T22:10:00.629Z,53.80
2018-05-18T22:12:30.148Z,53.80
2018-05-18T22:14:59.814Z,54.40
2018-05-18T22:17:28.697Z,53.80
2018-05-18T22:19:57.735Z,53.80
2018-05-18T22:22:27.399Z,54.40
2018-05-18T22:24:56.305Z,53.80
2018-05-18T22:27:25.202Z,53.80
2018-05-18T22:29:54.202Z,53.80
2018-05-18T22:32:23.206Z,53.80
2018-05-18T22:34:52.860Z,54.70
2018-05-18T22:37:21.739Z,53.80
2018-05-18T22:39:50.629Z,54.40
2018-05-18T22:42:19.530Z,53.80
2018-05-18T22:44:48.449Z,54.40
2018-05-18T22:47:17.761Z,54.40
2018-05-18T22:49:47.801Z,53.80
2018-05-18T22:52:16.693Z,53.90
2018-05-18T22:54:45.801Z,53.90
2018-05-18T22:57:14.684Z,53.90
2018-05-18T22:59:43.586Z,53.90
2018-05-18T23:02:12.705Z,53.90
2018-05-18T23:04:41.618Z,53.80
2018-05-18T23:07:10.500Z,53.90
2018-05-18T23:09:40.155Z,53.80
2018-05-18T23:12:09.048Z,53.90
2018-05-18T23:14:37.936Z,53.90
2018-05-18T23:17:06.839Z,53.90
2018-05-18T23:19:35.831Z,53.90
2018-05-18T23:22:05.087Z,53.90
2018-05-18T23:24:34.728Z,54.40
2018-05-18T23:27:03.628Z,53.90
2018-05-18T23:29:32.519Z,53.90
2018-05-18T23:32:01.792Z,53.90
2018-05-18T23:34:30.690Z,53.90
2018-05-18T23:36:59.581Z,54.40
2018-05-18T23:39:28.467Z,53.90
2018-05-18T23:41:57.431Z,54.40
2018-05-18T23:44:27.339Z,55.10
2018-05-18T23:46:56.932Z,53.90
2018-05-18T23:49:25.816Z,53.90
2018-05-18T23:51:55.025Z,54.40
2018-05-18T23:54:24.021Z,56.10
2018-05-18T23:56:52.900Z,53.90
2018-05-18T23:59:21.815Z,53.90
